createdAt,value
2022-11-14T00:01:31.558Z,3.00
2022-11-14T00:07:27.879Z,3.80
2022-11-14T00:10:22.622Z,3.47
2022-11-14T00:13:18.488Z,4.10
2022-11-14T00:16:19.168Z,3.70
2022-11-14T00:19:06.615Z,3.97
2022-11-14T00:21:54.959Z,3.93
2022-11-14T00:24:58.266Z,4.03
2022-11-14T00:27:47.893Z,3.80
2022-11-14T00:30:35.393Z,3.60
2022-11-14T00:33:22.298Z,3.47
2022-11-14T00:36:19.119Z,4.07
2022-11-14T00:39:14.561Z,3.37
2022-11-14T00:42:09.755Z,4.30
2022-11-14T00:45:00.862Z,3.47
2022-11-14T00:47:56.736Z,4.00
2022-11-14T00:50:49.447Z,2.93
2022-11-14T00:53:39.651Z,3.70
2022-11-14T00:56:35.781Z,3.40
2022-11-14T00:59:25.613Z,5.27
2022-11-14T01:02:15.217Z,3.27
2022-11-14T01:05:03.096Z,4.17
2022-11-14T01:07:50.635Z,4.27
2022-11-14T01:10:42.209Z,3.73
2022-11-14T01:13:33.308Z,4.38
2022-11-14T01:16:23.627Z,3.53
2022-11-14T01:19:19.644Z,3.43
2022-11-14T01:22:14.869Z,4.20
2022-11-14T01:25:11.617Z,3.97
2022-11-14T01:28:01.373Z,3.57
2022-11-14T01:30:52.584Z,3.77
2022-11-14T01:33:46.662Z,3.67
2022-11-14T01:39:40.679Z,4.68
2022-11-14T01:42:29.856Z,3.53
2022-11-14T01:46:02.095Z,3.90
2022-11-14T01:55:51.999Z,4.10
2022-11-14T01:58:53.128Z,3.87
2022-11-14T02:01:53.727Z,3.57
2022-11-14T02:04:47.273Z,3.57
2022-11-14T02:07:48.609Z,3.27
2022-11-14T02:10:35.227Z,3.20
2022-11-14T02:13:27.302Z,3.27
2022-11-14T02:19:03.992Z,3.33
2022-11-14T02:21:50.349Z,2.80
2022-11-14T02:24:42.467Z,4.03
2022-11-14T02:30:32.390Z,4.03
2022-11-14T02:33:21.133Z,2.97
2022-11-14T02:36:20.741Z,3.63
2022-11-14T02:39:12.628Z,3.03
2022-11-14T02:42:01.372Z,3.67
2022-11-14T02:44:48.293Z,2.50
2022-11-14T02:47:37.938Z,3.00
2022-11-14T02:50:27.145Z,4.13
2022-11-14T02:53:16.919Z,3.87
2022-11-14T02:56:03.044Z,3.67
2022-11-14T02:58:52.279Z,3.17
2022-11-14T03:01:40.565Z,4.50
2022-11-14T03:04:37.464Z,4.27
2022-11-14T03:07:30.208Z,2.97
2022-11-14T03:10:20.320Z,3.70
2022-11-14T03:13:24.449Z,4.13
2022-11-14T03:16:18.669Z,4.13
2022-11-14T03:19:14.978Z,3.57
2022-11-14T03:22:07.042Z,4.00
2022-11-14T03:24:56.602Z,4.57
2022-11-14T03:27:46.070Z,4.17
2022-11-14T03:30:35.176Z,3.03
2022-11-14T03:33:25.550Z,3.90
2022-11-14T03:36:16.459Z,3.20
2022-11-14T03:39:14.920Z,3.43
2022-11-14T03:42:04.344Z,2.67
2022-11-14T03:44:51.816Z,3.20
2022-11-14T03:47:40.810Z,3.27
2022-11-14T03:50:30.364Z,4.30
2022-11-14T03:53:19.874Z,3.87
2022-11-14T03:56:20.360Z,3.73
2022-11-14T03:59:10.570Z,3.63
2022-11-14T04:02:07.188Z,3.87
2022-11-14T04:05:04.623Z,3.23
2022-11-14T04:10:55.877Z,4.57
2022-11-14T04:13:48.336Z,3.23
2022-11-14T04:16:37.442Z,3.78
2022-11-14T04:19:26.757Z,4.30
2022-11-14T04:22:21.513Z,3.93
2022-11-14T04:25:13.386Z,2.67
2022-11-14T04:28:04.201Z,3.50
2022-11-14T04:33:52.344Z,3.33
2022-11-14T04:36:46.944Z,3.67
2022-11-14T04:39:36.923Z,3.87
2022-11-14T04:42:28.666Z,3.73
2022-11-14T04:45:17.670Z,3.97
2022-11-14T04:48:16.502Z,4.57
2022-11-14T04:51:05.935Z,4.30
2022-11-14T04:54:00.875Z,4.33
2022-11-14T04:57:03.233Z,5.17
2022-11-14T04:59:58.612Z,4.77
2022-11-14T05:02:45.353Z,4.30
2022-11-14T05:05:42.260Z,3.30
2022-11-14T05:08:31.321Z,4.77
2022-11-14T05:11:24.159Z,5.17
2022-11-14T05:14:24.584Z,8.03
2022-11-14T05:17:12.834Z,5.97
2022-11-14T05:20:11.170Z,6.23
2022-11-14T05:23:01.663Z,5.27
2022-11-14T05:25:58.820Z,6.57
2022-11-14T05:29:00.902Z,4.90
2022-11-14T05:31:56.887Z,5.27
2022-11-14T05:34:51.260Z,7.63
2022-11-14T05:37:42.473Z,6.30
2022-11-14T05:40:32.005Z,5.60
2022-11-14T05:43:31.461Z,5.37
2022-11-14T05:46:26.083Z,4.43
2022-11-14T05:49:22.268Z,4.10
2022-11-14T05:55:13.713Z,2.80
2022-11-14T05:58:06.124Z,4.07
2022-11-14T06:00:55.436Z,3.83
2022-11-14T06:04:04.251Z,4.77
2022-11-14T06:06:52.928Z,3.63
2022-11-14T06:12:44.089Z,4.80
2022-11-14T06:15:42.662Z,4.63
2022-11-14T06:21:48.662Z,5.60
2022-11-14T06:24:37.450Z,3.60
2022-11-14T06:27:26.709Z,5.27
2022-11-14T06:30:15.227Z,5.23
2022-11-14T06:33:12.791Z,4.83
2022-11-14T06:36:08.132Z,3.90
2022-11-14T06:39:02.693Z,3.80
2022-11-14T06:41:51.958Z,4.17
2022-11-14T06:44:49.680Z,5.00
2022-11-14T06:47:39.452Z,4.63
2022-11-14T06:50:38.081Z,4.27
2022-11-14T06:53:33.578Z,4.53
2022-11-14T06:56:21.394Z,5.23
2022-11-14T06:59:13.587Z,4.93
2022-11-14T07:04:59.800Z,4.90
2022-11-14T07:07:47.071Z,5.65
2022-11-14T07:10:36.354Z,4.07
2022-11-14T07:13:29.237Z,5.73
2022-11-14T07:16:17.791Z,6.10
2022-11-14T07:19:12.688Z,6.03
2022-11-14T07:22:02.903Z,5.80
2022-11-14T07:24:50.782Z,6.10
2022-11-14T07:30:50.054Z,5.37
2022-11-14T07:36:42.063Z,5.50
2022-11-14T07:39:37.965Z,5.17
2022-11-14T07:42:26.820Z,6.03
2022-11-14T07:45:13.439Z,5.77
2022-11-14T07:48:15.664Z,5.77
2022-11-14T07:51:04.292Z,7.17
2022-11-14T07:53:54.307Z,6.73
2022-11-14T07:56:43.251Z,8.20
2022-11-14T07:59:35.535Z,5.63
2022-11-14T08:02:35.805Z,6.77
2022-11-14T08:05:27.472Z,5.43
2022-11-14T08:08:20.322Z,5.68
2022-11-14T08:11:31.767Z,5.60
2022-11-14T08:14:30.121Z,6.63
2022-11-14T08:17:21.922Z,6.93
2022-11-14T08:20:10.520Z,5.25
2022-11-14T08:23:15.291Z,6.17
2022-11-14T08:26:04.030Z,5.10
2022-11-14T08:28:59.921Z,7.53
2022-11-14T08:31:57.139Z,6.10
2022-11-14T08:34:54.718Z,6.23
2022-11-14T08:37:44.583Z,5.57
2022-11-14T08:40:39.457Z,5.93
2022-11-14T08:43:28.974Z,6.40
2022-11-14T08:46:18.185Z,7.03
2022-11-14T08:49:05.607Z,8.17
2022-11-14T08:51:54.119Z,6.17
2022-11-14T08:57:50.850Z,7.00
2022-11-14T09:00:40.165Z,5.83
2022-11-14T09:03:30.241Z,6.27
2022-11-14T09:06:21.871Z,6.43
2022-11-14T09:09:09.975Z,8.45
2022-11-14T09:11:58.869Z,5.63
2022-11-14T09:17:55.973Z,6.57
2022-11-14T09:20:44.404Z,6.27
2022-11-14T09:23:38.556Z,6.13
2022-11-14T09:26:26.750Z,6.40
2022-11-14T09:29:22.396Z,6.80
2022-11-14T09:32:11.806Z,7.17
2022-11-14T09:35:07.729Z,6.13
2022-11-14T09:38:15.716Z,6.43
2022-11-14T09:41:44.772Z,5.83
2022-11-14T09:45:09.635Z,6.83
2022-11-14T09:48:27.444Z,5.50
2022-11-14T09:51:29.865Z,4.90
2022-11-14T09:54:39.643Z,6.20
2022-11-14T09:57:28.410Z,6.13
2022-11-14T10:00:24.192Z,5.77
2022-11-14T10:03:32.048Z,5.83
2022-11-14T10:06:43.936Z,7.23
2022-11-14T10:09:54.973Z,7.00
2022-11-14T10:13:04.295Z,5.40
2022-11-14T10:16:22.368Z,6.27
2022-11-14T10:19:53.104Z,6.63
2022-11-14T10:23:30.929Z,5.80
2022-11-14T10:26:50.622Z,6.23
2022-11-14T10:30:00.402Z,6.57
2022-11-14T10:33:07.011Z,7.57
2022-11-14T10:36:10.468Z,6.33
2022-11-14T10:39:19.421Z,5.77
2022-11-14T10:42:18.459Z,6.93
2022-11-14T10:45:40.192Z,7.13
2022-11-14T10:48:36.453Z,7.13
2022-11-14T10:51:44.053Z,7.03
2022-11-14T10:55:05.312Z,5.77
2022-11-14T10:57:57.269Z,6.47
2022-11-14T11:00:48.131Z,7.57
2022-11-14T11:03:48.107Z,6.20
2022-11-14T11:06:42.419Z,7.83
2022-11-14T11:09:51.334Z,6.77
2022-11-14T11:12:57.921Z,7.30
2022-11-14T11:15:51.086Z,6.93
2022-11-14T11:18:42.485Z,7.23
2022-11-14T11:21:53.479Z,7.00
2022-11-14T11:27:44.730Z,6.30
2022-11-14T11:30:33.253Z,6.27
2022-11-14T11:33:58.081Z,7.10
2022-11-14T11:36:58.022Z,5.93
2022-11-14T11:39:52.170Z,7.20
2022-11-14T11:46:22.114Z,4.83
2022-11-14T11:49:28.410Z,6.23
2022-11-14T11:52:50.448Z,6.20
2022-11-14T11:55:46.005Z,7.30
2022-11-14T11:58:54.829Z,7.20
2022-11-14T12:01:47.235Z,5.87
2022-11-14T12:04:42.835Z,6.13
2022-11-14T12:07:58.147Z,6.17
2022-11-14T12:10:53.458Z,6.47
2022-11-14T12:14:34.042Z,5.73
2022-11-14T12:17:47.103Z,5.70
2022-11-14T12:21:19.301Z,5.07
2022-11-14T12:24:39.306Z,6.28
2022-11-14T12:28:13.048Z,6.17
2022-11-14T12:31:07.194Z,5.73
2022-11-14T12:34:14.508Z,6.07
2022-11-14T12:37:11.736Z,5.33
2022-11-14T12:40:11.364Z,5.93
2022-11-14T12:43:09.234Z,5.70
2022-11-14T12:46:02.342Z,5.43
2022-11-14T12:48:51.800Z,6.33
2022-11-14T12:51:56.539Z,6.00
2022-11-14T12:54:52.635Z,5.80
2022-11-14T12:58:05.535Z,5.53
2022-11-14T13:01:13.065Z,6.53
2022-11-14T13:04:40.042Z,6.00
2022-11-14T13:08:20.133Z,6.93
2022-11-14T13:12:03.106Z,7.23
2022-11-14T13:18:44.712Z,5.80
2022-11-14T13:21:47.796Z,6.37
2022-11-14T13:25:01.670Z,5.67
2022-11-14T13:28:07.498Z,6.50
2022-11-14T13:31:22.145Z,7.27
2022-11-14T13:38:40.571Z,6.93
2022-11-14T13:42:03.099Z,5.33
2022-11-14T13:48:41.514Z,6.33
2022-11-14T13:51:43.727Z,5.55
2022-11-14T13:54:45.091Z,7.13
2022-11-14T13:58:25.342Z,5.90
2022-11-14T14:01:33.754Z,6.60
2022-11-14T14:05:02.674Z,4.90
2022-11-14T14:08:14.979Z,6.77
2022-11-14T14:14:48.747Z,6.00
2022-11-14T14:18:13.140Z,6.57
2022-11-14T14:21:29.709Z,6.50
2022-11-14T14:24:45.620Z,5.10
2022-11-14T14:27:47.217Z,7.03
2022-11-14T14:30:40.810Z,6.45
2022-11-14T14:33:27.468Z,6.67
2022-11-14T14:36:32.863Z,6.80
2022-11-14T14:39:26.490Z,5.60
2022-11-14T14:42:15.467Z,4.80
2022-11-14T14:45:06.997Z,6.23
2022-11-14T14:48:18.053Z,5.13
2022-11-14T14:51:08.079Z,5.97
2022-11-14T14:53:57.993Z,5.67
2022-11-14T14:57:00.294Z,7.33
2022-11-14T15:02:54.500Z,6.83
2022-11-14T15:05:44.594Z,9.27
2022-11-14T15:08:44.236Z,5.37
2022-11-14T15:11:34.719Z,6.43
2022-11-14T15:14:31.659Z,6.83
2022-11-14T15:17:18.048Z,6.77
2022-11-14T15:20:21.324Z,6.30
2022-11-14T15:23:28.605Z,7.23
2022-11-14T15:26:22.273Z,5.73
2022-11-14T15:29:39.430Z,7.03
2022-11-14T15:32:34.553Z,7.47
2022-11-14T15:35:35.043Z,9.07
2022-11-14T15:38:47.935Z,7.70
2022-11-14T15:41:37.934Z,6.80
2022-11-14T15:44:36.276Z,6.27
2022-11-14T15:47:33.557Z,6.07
2022-11-14T15:50:39.951Z,21.93
2022-11-14T15:53:32.777Z,12.87
2022-11-14T15:56:27.875Z,8.93
2022-11-14T15:59:22.662Z,6.07
2022-11-14T16:02:33.556Z,6.80
2022-11-14T16:05:35.261Z,6.83
2022-11-14T16:08:23.889Z,6.25
2022-11-14T16:11:14.084Z,7.17
2022-11-14T16:14:16.566Z,7.03
2022-11-14T16:17:06.129Z,5.63
2022-11-14T16:19:53.042Z,7.37
2022-11-14T16:22:49.017Z,6.80
2022-11-14T16:25:35.682Z,6.53
2022-11-14T16:28:26.217Z,6.83
2022-11-14T16:31:19.566Z,6.10
2022-11-14T16:34:13.730Z,7.10
2022-11-14T16:37:03.750Z,7.50
2022-11-14T16:39:53.111Z,7.00
2022-11-14T16:42:42.693Z,6.10
2022-11-14T16:45:34.464Z,6.70
2022-11-14T16:51:33.108Z,5.10
2022-11-14T16:54:18.214Z,6.33
2022-11-14T16:57:14.282Z,6.00
2022-11-14T17:00:10.848Z,6.23
2022-11-14T17:02:58.055Z,6.93
2022-11-14T17:05:52.348Z,7.27
2022-11-14T17:08:49.057Z,7.20
2022-11-14T17:14:45.119Z,7.43
2022-11-14T17:17:34.784Z,6.40
2022-11-14T17:20:29.446Z,5.67
2022-11-14T17:23:19.866Z,6.47
2022-11-14T17:26:10.334Z,6.60
2022-11-14T17:28:59.875Z,7.33
2022-11-14T17:31:52.389Z,6.20
2022-11-14T17:34:41.477Z,6.30
2022-11-14T17:37:28.932Z,8.57
2022-11-14T17:40:18.129Z,6.73
2022-11-14T17:43:10.592Z,5.33
2022-11-14T17:46:03.883Z,5.90
2022-11-14T17:49:00.582Z,8.33
2022-11-14T17:51:58.349Z,7.40
2022-11-14T17:54:48.368Z,8.73
2022-11-14T17:57:44.631Z,6.67
2022-11-14T18:00:33.603Z,6.27
2022-11-14T18:03:35.080Z,7.00
2022-11-14T18:06:36.636Z,8.00
2022-11-14T18:09:25.913Z,9.65
2022-11-14T18:12:15.955Z,6.63
2022-11-14T18:15:05.075Z,7.57
2022-11-14T18:17:52.875Z,7.80
2022-11-14T18:20:40.800Z,5.77
2022-11-14T18:23:35.700Z,6.87
2022-11-14T18:26:30.111Z,8.27
2022-11-14T18:29:22.827Z,7.30
2022-11-14T18:32:18.396Z,5.97
2022-11-14T18:35:13.328Z,7.23
2022-11-14T18:38:05.369Z,7.60
2022-11-14T18:40:57.520Z,7.13
2022-11-14T18:43:47.835Z,7.47
2022-11-14T18:46:41.541Z,6.93
2022-11-14T18:49:33.967Z,6.77
2022-11-14T18:52:23.780Z,7.00
2022-11-14T18:55:15.809Z,6.60
2022-11-14T18:58:03.388Z,6.97
2022-11-14T19:00:53.556Z,7.23
2022-11-14T19:06:43.748Z,7.05
2022-11-14T19:12:40.118Z,6.40
2022-11-14T19:15:35.588Z,6.87
2022-11-14T19:18:27.845Z,5.10
2022-11-14T19:21:24.151Z,5.40
2022-11-14T19:24:11.360Z,6.03
2022-11-14T19:27:03.316Z,8.57
2022-11-14T19:29:58.922Z,6.37
2022-11-14T19:32:47.765Z,7.57
2022-11-14T19:35:42.638Z,7.27
2022-11-14T19:38:31.891Z,5.73
2022-11-14T19:41:29.432Z,5.90
2022-11-14T19:44:17.042Z,6.83
2022-11-14T19:47:12.250Z,5.33
2022-11-14T19:49:59.664Z,5.90
2022-11-14T19:52:46.874Z,5.53
2022-11-14T19:55:36.496Z,5.93
2022-11-14T19:58:25.984Z,8.47
2022-11-14T20:01:20.950Z,8.53
2022-11-14T20:04:10.337Z,8.40
2022-11-14T20:07:05.255Z,8.37
2022-11-14T20:09:53.042Z,7.40
2022-11-14T20:15:42.444Z,7.77
2022-11-14T20:18:40.571Z,7.50
2022-11-14T20:21:32.472Z,6.30
2022-11-14T20:24:26.505Z,4.90
2022-11-14T20:27:22.393Z,5.30
2022-11-14T20:30:21.132Z,4.83
2022-11-14T20:33:09.501Z,5.80
2022-11-14T20:36:08.739Z,4.80
2022-11-14T20:38:59.736Z,6.80
2022-11-14T20:41:55.995Z,5.25
2022-11-14T20:44:45.168Z,5.60
2022-11-14T20:47:37.791Z,5.57
2022-11-14T20:50:27.508Z,4.63
2022-11-14T20:53:13.734Z,4.70
2022-11-14T20:56:15.173Z,4.50
2022-11-14T20:59:04.477Z,4.65
2022-11-14T21:01:53.622Z,4.10
2022-11-14T21:04:45.090Z,5.70
2022-11-14T21:07:37.851Z,5.15
2022-11-14T21:10:43.356Z,6.67
2022-11-14T21:13:51.363Z,6.73
2022-11-14T21:16:40.115Z,7.43
2022-11-14T21:19:29.468Z,6.40
2022-11-14T21:22:25.389Z,8.03
2022-11-14T21:25:15.385Z,6.57
2022-11-14T21:28:09.410Z,7.00
2022-11-14T21:30:56.021Z,6.97
2022-11-14T21:33:45.458Z,5.50
2022-11-14T21:36:45.007Z,5.80
2022-11-14T21:39:35.313Z,5.13
2022-11-14T21:42:28.339Z,6.00
2022-11-14T21:45:18.094Z,5.40
2022-11-14T21:48:20.188Z,7.07
2022-11-14T21:51:17.787Z,6.15
2022-11-14T21:54:07.223Z,6.40
2022-11-14T21:56:56.427Z,5.90
2022-11-14T21:59:52.284Z,7.20
2022-11-14T22:03:00.676Z,8.03
2022-11-14T22:05:52.865Z,6.83
2022-11-14T22:08:43.775Z,6.37
2022-11-14T22:11:40.374Z,7.97
2022-11-14T22:14:30.424Z,5.37
2022-11-14T22:17:22.119Z,6.40
2022-11-14T22:20:10.807Z,6.13
2022-11-14T22:22:57.821Z,6.87
2022-11-14T22:25:47.357Z,6.90
2022-11-14T22:28:47.665Z,5.90
2022-11-14T22:31:40.459Z,5.80
2022-11-14T22:34:30.527Z,6.13
2022-11-14T22:37:25.418Z,7.03
2022-11-14T22:40:22.629Z,7.20
2022-11-14T22:43:12.040Z,5.30
2022-11-14T22:46:03.731Z,6.00
2022-11-14T22:48:56.001Z,5.78
2022-11-14T22:51:51.480Z,6.03
2022-11-14T22:54:41.460Z,6.65
2022-11-14T22:57:30.919Z,6.83
2022-11-14T23:00:20.661Z,6.33
2022-11-14T23:03:20.504Z,7.33
2022-11-14T23:06:19.277Z,5.60
2022-11-14T23:09:08.156Z,7.07
2022-11-14T23:11:59.710Z,5.97
2022-11-14T23:14:50.057Z,5.97
2022-11-14T23:17:39.060Z,7.00
2022-11-14T23:20:27.649Z,6.77
2022-11-14T23:23:25.036Z,7.50
2022-11-14T23:26:18.111Z,4.73
2022-11-14T23:29:10.214Z,5.80
2022-11-14T23:32:05.190Z,8.02
2022-11-14T23:35:09.779Z,6.17
2022-11-14T23:37:57.587Z,6.67
2022-11-14T23:40:52.348Z,6.00
2022-11-14T23:43:44.929Z,6.83
2022-11-14T23:46:48.160Z,6.53
2022-11-14T23:49:45.079Z,7.43
2022-11-14T23:52:34.885Z,6.43
2022-11-14T23:55:23.698Z,5.03
2022-11-14T23:58:12.826Z,5.63
